Victoria International Airport
CYYJ : rendu visible

Aérodrome :











RETROUVEZ-NOUS SUR...

 
LOGIN :

S'inscrire | Disclaimer

   EN    FR    IT 

 









Légende :    VFR   VFR Marginal   IFR   IFR Intensif   IFR Très Intensif
Visi : 
Plafond : 
>= 8 km
>= 3000ft
5 à 8 km
1000 à 3000 ft
1500m à 5 km
500 à 1000 ft
800 à 1500m
200 à 500 ft
< 800m
< 200 ft
Symboles :   Orages  Brouillard  Fortes neiges  Fortes précipitations  Vent > 20 kt






- Altitude de l'aérodrome : 63 ft
- Code IATA : YYJ


CYYJ - Victoria International

DERNIER METAR :
  • 250724Z 15002KT 15SM -RA FEW035 SCT064 BKN082 OVC100 03/03 A2989 RMK SC1SC2AC2AC3 SLP123

METARs EXPIRÉS :
  • 250700Z VRB02KT 15SM FEW039 FEW081 SCT100 OVC130 03/03 A2989 RMK SC1AC1AC2AC4 SLP122
  • 250600Z CCA 24003KT 15SM FEW045 SCT140 BKN180 01/01 A2988 RMK SC1AS2AS4 SLP119
  • 250500Z 07003KT 360V080 15SM FEW045 FEW250 02/02 A2987 RMK SC1CI1 CI TR SLP118

TAF AMD TAF CYYJ
Valide du 25 à 06h jusqu'au 26 à 06h UTC


250649Z 2506/2606 VRB03KT P6SM FEW020 SCT040
TEMPO 2506/2515 5SM -SHRA BR BKN020
BECMG 2515/2517 16008KT RMK NXT FCST BY 251200Z
FIR CZVR / Amérique du Nord



MET'MAP, la Météo Aéronautique d'un coup d'oeil ! - Copyright ORBIFLY Décembre 2007 - Disclaimer

ORBIFLY MET'MAP TEAM :

Programmation & Développement : Alexandra Zaïnal
Sur une idée originale de : Baudouin d'Aumeries
Assistance à la programmation : Marc-Olivier Méhu
Soutien technique & logistique : Manuel Goepfert

Contact : metmap@orbifly.com




SOURCES & CREDITS :

   NOAA       Earth
Advisory